Flight Track Log - Related Links

Times and Time Zones

All times are in EDT time to prevent confusion due to time zone crossing. See the USC105 flight status page for this flight to view local times or setup timezone preferences in your user account.

Time Position Orientation Groundspeed Altitude Reporting Facility
EDT Latitude Longitude Course Direction KTS MPH feet Rate Location/Type
Fri 07:10:51 AM 42.2150 -83.5719 233° Southwest 113 130 1,900  Level Cleveland Center
Fri 07:11:51 AM 42.1892 -83.5958 214° Southwest 111 128 2,900 992 Climbing Cleveland Center
Fri 07:12:52 AM 42.1600 -83.6028 190° South 114 131 3,900 1,033 Climbing Cleveland Center
Fri 07:13:53 AM 42.1283 -83.6153 196° South 116 133 5,000 1,033 Climbing Cleveland Center
Fri 07:14:54 AM 42.0947 -83.6250 192° South 116 133 6,000 984 Climbing Cleveland Center
Fri 07:15:55 AM 42.0633 -83.6347 193° South 120 138 7,000 492 Climbing Cleveland Center
Fri 07:16:56 AM 42.0214 -83.6356 181° South 161 185 7,000  Level Cleveland Center
Fri 07:17:57 AM 41.9850 -83.6003 144° Southeast 159 183 7,000  Level Cleveland Center
Fri 07:19:00 AM 41.9395 -83.5857 160° South  Level Estimated
Fri 07:25:37 AM 41.6633 -83.4017 165° South 168 193 7,000  Level Indianapolis Center
Fri 07:26:00 AM 41.6359 -83.4890 180° South  Level Estimated
Fri 07:26:38 AM 41.6181 -83.3903 169° South 167 192 7,000  Level Indianapolis Center
Fri 07:27:00 AM 41.6040 -83.4473 136° Southeast  Level FlightAware Approximate
Fri 07:27:40 AM 41.5725 -83.3792 170° South 165 190 7,000  Level Indianapolis Center
Fri 07:28:00 AM 41.5721 -83.4057 136° Southeast  Level FlightAware Approximate
Fri 07:28:41 AM 41.5264 -83.3669 169° South 167 192 7,000  Level Indianapolis Center
Fri 07:29:00 AM 41.5402 -83.3641 136° Southeast  Level FlightAware Approximate
Fri 07:29:42 AM 41.4811 -83.3539 168° South 167 192 7,000  Level Indianapolis Center
Fri 07:30:00 AM 41.4981 -83.3494 165° South  Level FlightAware Approximate
Fri 07:30:43 AM 41.4350 -83.3411 168° South 167 192 7,000  Level Indianapolis Center
Fri 07:31:44 AM 41.3881 -83.3297 170° South 170 196 7,000  Level Indianapolis Center
Fri 07:32:45 AM 41.3417 -83.3175 169° South 168 193 7,000  Level Indianapolis Center
Fri 07:33:47 AM 41.2964 -83.3056 169° South 165 190 7,000  Level Indianapolis Center
Fri 07:34:48 AM 41.2506 -83.2942 169° South 166 191 7,000  Level Indianapolis Center
Fri 07:35:49 AM 41.2050 -83.2819 169° South 166 191 7,000  Level Indianapolis Center
Fri 07:36:50 AM 41.1589 -83.2700 169° South 167 192 7,000  Level Indianapolis Center
Fri 07:37:52 AM 41.1125 -83.2581 169° South 169 194 7,000  Level Indianapolis Center
Fri 07:38:53 AM 41.0669 -83.2469 170° South 166 191 7,000 -49 Level Indianapolis Center
Fri 07:39:54 AM 41.0131 -83.2336 169° South 167 192 6,900  Descending Indianapolis Center
Fri 07:40:56 AM 40.9678 -83.2217 169° South 166 191 7,000 49 Climbing Indianapolis Center
Fri 07:41:57 AM 40.9228 -83.2089 168° South 164 189 7,000  Level Indianapolis Center
Fri 07:42:58 AM 40.8764 -83.1969 169° South 166 191 7,000  Level Indianapolis Center
Fri 07:44:00 AM 40.8297 -83.1858 170° South 169 194 7,000  Level Indianapolis Center
Fri 07:45:01 AM 40.7844 -83.1744 169° South 166 191 7,000  Level Indianapolis Center
Fri 07:46:02 AM 40.7392 -83.1606 167° South 167 192 7,000  Level Indianapolis Center
Fri 07:47:04 AM 40.6933 -83.1517 172° South 165 190 7,000  Level Indianapolis Center
Fri 07:48:05 AM 40.6486 -83.1383 167° South 163 188 7,000  Level Indianapolis Center
Fri 07:49:06 AM 40.6036 -83.1267 169° South 163 188 7,000  Level Indianapolis Center
Fri 07:50:08 AM 40.5589 -83.1150 169° South 163 188 7,000  Level Indianapolis Center
Fri 07:51:09 AM 40.5144 -83.1061 171° South 162 186 7,000  Level Indianapolis Center
Fri 07:52:11 AM 40.4683 -83.0956 170° South 165 190 7,000  Level Indianapolis Center
Fri 07:52:43 AM 40.4383 -83.0889 170° South 162 186 7,000  Level Indianapolis Center
Fri 07:53:12 AM 40.4244 -83.0831 162° South 162 186 7,000  Level Indianapolis Center
Fri 07:54:13 AM 40.3717 -83.0692 169° South 163 188 7,000  Level Indianapolis Center
Fri 07:54:38 AM 40.3519 -83.0678 177° South 162 186 7,000 -194 Level Indianapolis Center
Fri 07:55:15 AM 40.3275 -83.0589 165° South 160 184 6,800 -600 Descending Indianapolis Center
Fri 07:55:38 AM 40.3067 -83.0544 171° South 170 196 6,400 -787 Descending Indianapolis Center
Fri 07:56:16 AM 40.2769 -83.0461 168° South 176 203 6,000 -655 Descending Indianapolis Center
Fri 07:56:33 AM 40.2592 -83.0433 173° South 183 211 5,800 -677 Descending Indianapolis Center
Fri 07:57:18 AM 40.2264 -83.0344 168° South 182 209 5,300 -787 Descending Indianapolis Center
Fri 07:57:34 AM 40.2097 -83.0322 174° South 181 208 5,000 -984 Descending Indianapolis Center
Fri 07:58:19 AM 40.1739 -83.0211 167° South 187 215 4,300 -1,000 Descending Indianapolis Center
Fri 07:58:34 AM 40.1583 -83.0208 179° South 190 219 4,000 -295 Descending Indianapolis Center
Fri 07:59:20 AM 40.1236 -83.0114 168° South 186 214 4,000 -90 Level Indianapolis Center
Fri 07:59:41 AM 40.1047 -83.0092 175° South 160 184 3,900  Descending Indianapolis Center
Fri 08:00:22 AM 40.0800 -82.9994 163° South 172 198 4,000  Climbing Indianapolis Center
Fri 08:00:54 AM 40.0575 -82.9956 172° South 153 176 3,900  Descending Indianapolis Center
Fri 08:01:23 AM 40.0378 -82.9881 164° South 161 185 4,000 125 Climbing Indianapolis Center
Fri 08:01:42 AM 40.0206 -82.9831 167° South 154 177 4,000 -290 Level Indianapolis Center
Fri 08:02:25 AM 39.9950 -82.9761 168° South 156 180 3,700 -689 Descending Indianapolis Center
Fri 08:02:43 AM 39.9775 -82.9725 171° South 169 194 3,300 -885 Descending Indianapolis Center
Fri 08:03:26 AM 39.9483 -82.9594 161° South 163 188 2,800 -689 Descending Indianapolis Center
Fri 08:03:44 AM 39.9331 -82.9486 151° Southeast 181 208 2,600 -492 Descending Indianapolis Center
Fri 08:04:27 AM 39.9058 -82.9319 155° Southeast 168 193 2,300 -457 Descending Indianapolis Center
Fri 08:05:29 AM 39.8678 -82.9028 150° Southeast 163 188 1,800 -488 Descending Indianapolis Center
Fri 08:06:30 AM 39.8358 -82.8947 169° South 155 178 1,300 -390 Descending Indianapolis Center
Fri 08:07:32 AM 39.8169 -82.9306 236° Southwest 137 158 1,000 -290 Descending Indianapolis Center
Fri 08:09:00 AM 39.8138 -82.9278 159° South  Level Estimated

Login

Don't have an account? Register now (free) for customized features, flight alerts, and more!